Time;durP1;ratioP1;P1;durP2;ratioP2;P2;SDS_P1;SDS_P2;PMS_P1;PMS_P2;Temp;Humidity;BMP_temperature;BMP_pressure;BME280_temperature;BME280_humidity;BME280_pressure;Samples;Min_cycle;Max_cycle;Signal;HPM_P1;HPM_P2
2022/08/05 00:01:38;;;;;;;3.53;2.83;;;19.10;99.90;;;;;;5184452;28;20088;-76
2022/08/05 00:04:09;;;;;;;4.18;3.13;;;19.10;99.90;;;;;;5174119;28;20413;-75
2022/08/05 00:06:40;;;;;;;3.63;2.90;;;19.10;99.90;;;;;;5175180;28;20117;-75
2022/08/05 00:09:11;;;;;;;3.78;3.28;;;19.00;99.90;;;;;;5166688;28;20081;-75
2022/08/05 00:11:41;;;;;;;4.15;3.22;;;19.00;99.90;;;;;;5166522;28;20355;-76
2022/08/05 00:14:12;;;;;;;3.75;3.38;;;19.00;99.90;;;;;;5166464;28;20022;-77
2022/08/05 00:16:44;;;;;;;3.08;2.60;;;18.90;99.90;;;;;;5178709;28;20453;-76
2022/08/05 00:19:14;;;;;;;4.63;2.85;;;19.00;99.90;;;;;;5168973;28;20049;-76
2022/08/05 00:21:45;;;;;;;4.30;3.10;;;19.00;99.90;;;;;;5166307;28;20026;-77
2022/08/05 00:24:16;;;;;;;3.72;2.90;;;19.00;99.90;;;;;;5166061;28;20022;-77
2022/08/05 00:26:47;;;;;;;3.85;3.10;;;19.00;99.90;;;;;;5166147;28;20058;-76
2022/08/05 00:29:21;;;;;;;4.05;2.58;;;19.10;99.90;;;;;;5167193;28;20018;-76
2022/08/05 00:31:53;;;;;;;3.08;2.58;;;19.00;99.90;;;;;;5183495;28;20073;-76
2022/08/05 00:34:24;;;;;;;3.30;2.92;;;18.90;99.90;;;;;;5175916;28;20044;-76
2022/08/05 00:36:55;;;;;;;3.05;2.75;;;19.00;99.90;;;;;;5185364;28;20021;-76
2022/08/05 00:39:25;;;;;;;3.17;2.88;;;19.00;99.90;;;;;;5168251;28;20042;-76
2022/08/05 00:41:56;;;;;;;3.95;2.75;;;19.00;99.90;;;;;;5165738;28;20026;-75
2022/08/05 00:44:27;;;;;;;6.20;2.90;;;19.00;99.90;;;;;;5176200;28;20030;-75
2022/08/05 00:46:58;;;;;;;6.03;2.85;;;19.00;99.90;;;;;;5186330;28;20061;-77
2022/08/05 00:49:29;;;;;;;3.20;2.78;;;19.00;99.90;;;;;;5186475;28;20026;-77
2022/08/05 00:52:00;;;;;;;4.05;2.67;;;19.00;99.90;;;;;;5179631;28;20038;-75
2022/08/05 00:54:30;;;;;;;4.07;3.33;;;18.90;99.90;;;;;;5165906;28;20030;-76
2022/08/05 00:57:01;;;;;;;3.42;2.75;;;18.70;99.90;;;;;;5180532;28;20060;-75
2022/08/05 00:59:32;;;;;;;3.38;2.58;;;18.80;99.90;;;;;;5169922;28;21467;-75
2022/08/05 01:02:03;;;;;;;4.00;3.22;;;18.80;99.90;;;;;;5182237;28;20096;-75
2022/08/05 01:04:34;;;;;;;3.72;3.00;;;18.90;99.90;;;;;;5186149;28;20033;-76
2022/08/05 01:07:05;;;;;;;3.47;2.90;;;18.90;99.90;;;;;;5186053;28;20026;-78
2022/08/05 01:09:36;;;;;;;2.92;2.50;;;18.90;99.90;;;;;;5186021;28;20485;-77
2022/08/05 01:12:13;;;;;;;3.35;2.83;;;18.80;99.90;;;;;;5177482;28;20037;-76
2022/08/05 01:14:49;;;;;;;3.95;3.17;;;18.70;99.90;;;;;;5164378;28;20023;-75
2022/08/05 01:17:44;;;;;;;3.08;2.22;;;18.70;99.90;;;;;;5165333;28;20030;-75
2022/08/05 01:20:39;;;;;;;3.75;3.15;;;18.70;99.90;;;;;;5182694;28;20037;-76
2022/08/05 01:23:47;;;;;;;3.22;2.63;;;18.80;99.90;;;;;;5170055;28;20093;-75
2022/08/05 01:26:28;;;;;;;3.78;3.22;;;18.70;99.90;;;;;;5163571;28;20057;-76
2022/08/05 01:29:04;;;;;;;3.30;2.78;;;18.80;99.90;;;;;;5178886;28;20030;-76
2022/08/05 01:31:42;;;;;;;4.13;3.10;;;18.80;99.90;;;;;;5167223;28;20356;-76
2022/08/05 01:34:21;;;;;;;8.27;3.00;;;18.90;99.90;;;;;;5177552;28;20034;-75
2022/08/05 01:37:08;;;;;;;3.17;2.83;;;18.70;99.90;;;;;;5163984;28;20060;-75
2022/08/05 01:39:43;;;;;;;4.32;3.28;;;18.60;99.90;;;;;;5169221;28;20394;-76
2022/08/05 01:42:16;;;;;;;3.88;3.45;;;18.70;99.90;;;;;;5184324;28;20366;-76
2022/08/05 01:44:47;;;;;;;4.47;3.40;;;18.70;99.90;;;;;;5172758;28;20030;-75
2022/08/05 01:47:20;;;;;;;4.10;3.15;;;18.70;99.90;;;;;;5166100;28;20022;-76
2022/08/05 01:49:53;;;;;;;3.85;3.45;;;18.80;99.90;;;;;;5185385;28;20137;-75
2022/08/05 01:52:25;;;;;;;3.97;3.17;;;18.70;99.90;;;;;;5185617;28;20385;-75
2022/08/05 01:55:00;;;;;;;4.70;3.30;;;18.70;99.90;;;;;;5188153;28;20494;-75
2022/08/05 01:57:36;;;;;;;3.33;2.90;;;18.80;99.90;;;;;;5187112;28;20042;-76
2022/08/05 02:00:09;;;;;;;3.50;3.08;;;18.70;99.90;;;;;;5176434;28;20104;-75
2022/08/05 02:03:03;;;;;;;3.63;3.15;;;18.70;99.90;;;;;;5189357;28;20030;-75
2022/08/05 02:05:37;;;;;;;4.43;3.47;;;18.80;99.90;;;;;;5187474;28;20129;-75
2022/08/05 02:08:08;;;;;;;4.78;3.30;;;18.80;99.90;;;;;;5181414;28;20026;-75
2022/08/05 02:10:52;;;;;;;3.85;3.13;;;18.90;99.90;;;;;;5169058;28;20437;-75
2022/08/05 02:13:40;;;;;;;4.28;3.20;;;18.90;99.90;;;;;;5185387;28;20034;-76
2022/08/05 02:16:33;;;;;;;4.53;3.40;;;18.90;99.90;;;;;;5179916;28;20053;-75
2022/08/05 02:19:23;;;;;;;3.55;3.13;;;19.00;99.90;;;;;;5168990;28;20022;-76
2022/08/05 02:22:12;;;;;;;;;;;19.00;99.90;;;;;;5169492;28;20030;-74
2022/08/05 02:24:50;;;;;;;3.75;3.00;;;19.00;99.90;;;;;;5168728;28;19917;-76
2022/08/05 02:27:22;;;;;;;4.53;3.60;;;19.20;99.90;;;;;;5185813;28;20061;-75
2022/08/05 02:29:56;;;;;;;3.92;3.13;;;19.10;99.90;;;;;;5188906;28;20026;-76
2022/08/05 02:32:29;;;;;;;3.92;3.50;;;19.10;99.90;;;;;;5181024;28;20057;-75
2022/08/05 02:35:04;;;;;;;3.47;2.95;;;19.10;99.90;;;;;;5181833;28;20030;-75
2022/08/05 02:37:37;;;;;;;3.10;2.80;;;19.20;99.90;;;;;;5172196;28;20022;-75
2022/08/05 02:40:09;;;;;;;4.00;3.22;;;19.20;99.90;;;;;;5179966;28;20467;-76
2022/08/05 02:42:41;;;;;;;4.20;3.22;;;19.20;99.90;;;;;;5179768;28;20033;-75
2022/08/05 02:45:13;;;;;;;3.38;3.00;;;19.40;99.90;;;;;;5188519;28;20040;-77
2022/08/05 02:47:45;;;;;;;4.10;3.42;;;19.30;99.90;;;;;;5183930;28;20084;-76
2022/08/05 02:50:16;;;;;;;4.80;3.47;;;19.40;99.90;;;;;;5167895;28;20034;-74
2022/08/05 02:52:47;;;;;;;3.78;3.22;;;19.30;99.90;;;;;;5166616;28;20027;-75
2022/08/05 02:55:19;;;;;;;3.83;3.40;;;19.40;99.90;;;;;;5183630;28;20042;-74
2022/08/05 02:57:50;;;;;;;4.35;3.63;;;19.40;99.90;;;;;;5188096;28;20057;-75
2022/08/05 03:00:22;;;;;;;4.68;3.72;;;19.40;99.90;;;;;;5178894;28;20046;-75
2022/08/05 03:02:53;;;;;;;4.43;3.47;;;19.50;99.90;;;;;;5170090;28;20088;-75
2022/08/05 03:05:25;;;;;;;4.18;3.38;;;19.50;99.90;;;;;;5169071;28;20423;-75
2022/08/05 03:07:56;;;;;;;4.95;3.95;;;19.60;99.90;;;;;;5181984;28;20084;-75
2022/08/05 03:10:27;;;;;;;4.50;3.15;;;19.50;99.90;;;;;;5166160;28;20022;-74
2022/08/05 03:12:58;;;;;;;4.38;3.45;;;19.50;99.90;;;;;;5180704;28;20550;-74
2022/08/05 03:15:29;;;;;;;4.22;3.60;;;19.60;99.90;;;;;;5169237;28;20129;-75
2022/08/05 03:17:59;;;;;;;4.18;3.40;;;19.60;99.90;;;;;;5167427;28;20027;-75
2022/08/05 03:20:30;;;;;;;4.13;3.30;;;19.50;99.90;;;;;;5176680;28;20029;-75
2022/08/05 03:23:03;;;;;;;3.28;2.97;;;19.50;99.90;;;;;;5187653;28;20108;-75
2022/08/05 03:25:36;;;;;;;3.60;3.22;;;19.50;99.90;;;;;;5170935;28;20046;-75
2022/08/05 03:28:08;;;;;;;3.90;3.42;;;19.60;99.90;;;;;;5180226;28;20046;-76
2022/08/05 03:30:39;;;;;;;3.65;3.35;;;19.60;99.90;;;;;;5167374;28;20050;-75
2022/08/05 03:33:10;;;;;;;4.88;3.38;;;19.70;99.90;;;;;;5180532;28;20077;-78
2022/08/05 03:35:43;;;;;;;4.40;3.58;;;19.60;99.90;;;;;;5183485;28;20058;-75
2022/08/05 03:38:14;;;;;;;4.57;3.13;;;19.80;99.90;;;;;;5175615;28;20026;-78
2022/08/05 03:40:45;;;;;;;4.03;3.42;;;19.80;99.90;;;;;;5187093;28;20109;-75
2022/08/05 03:43:16;;;;;;;3.97;3.33;;;19.70;99.90;;;;;;5170669;28;20027;-76
2022/08/05 03:45:47;;;;;;;3.78;3.47;;;19.90;99.90;;;;;;5171382;28;20382;-77
2022/08/05 03:48:18;;;;;;;7.18;3.30;;;19.90;99.90;;;;;;5187440;28;20030;-76
2022/08/05 03:51:07;;;;;;;4.18;3.67;;;19.90;99.90;;;;;;5174097;28;20030;-75
2022/08/05 03:53:47;;;;;;;3.95;3.47;;;19.80;99.90;;;;;;5186687;28;20025;-77
2022/08/05 03:56:25;;;;;;;;;;;19.90;99.90;;;;;;5187209;28;20042;-76
2022/08/05 03:58:59;;;;;;;5.13;3.78;;;20.00;99.90;;;;;;5187013;28;20411;-76
2022/08/05 04:01:35;;;;;;;4.75;3.90;;;20.00;99.90;;;;;;5187169;28;20228;-75
2022/08/05 04:04:06;;;;;;;4.50;3.58;;;20.10;99.90;;;;;;5173623;28;20021;-75
2022/08/05 04:06:37;;;;;;;4.20;3.78;;;20.10;99.90;;;;;;5175413;28;20490;-75
2022/08/05 04:09:09;;;;;;;5.15;4.20;;;20.30;99.90;;;;;;5181940;28;20516;-76
2022/08/05 04:11:39;;;;;;;5.35;4.53;;;20.50;99.90;;;;;;5170373;28;20018;-77
2022/08/05 04:14:11;;;;;;;4.65;4.07;;;20.50;99.90;;;;;;5185439;28;20176;-75
2022/08/05 04:16:42;;;;;;;6.45;4.50;;;20.70;99.90;;;;;;5185762;28;20045;-75
2022/08/05 04:19:13;;;;;;;7.88;4.10;;;20.70;99.90;;;;;;5186416;28;20029;-78
2022/08/05 04:21:44;;;;;;;5.13;4.35;;;20.80;99.90;;;;;;5165194;28;20169;-76
2022/08/05 04:24:15;;;;;;;5.15;4.57;;;20.80;99.90;;;;;;5166144;28;20022;-75
2022/08/05 04:26:46;;;;;;;5.80;4.28;;;20.90;99.90;;;;;;5178430;28;20127;-76
2022/08/05 04:29:17;;;;;;;5.10;4.10;;;21.00;99.90;;;;;;5186427;28;20038;-75
2022/08/05 04:31:47;;;;;;;5.18;4.57;;;21.10;99.90;;;;;;5183041;28;20117;-75
2022/08/05 04:34:18;;;;;;;6.93;4.35;;;21.10;99.90;;;;;;5175184;28;20389;-78
2022/08/05 04:36:49;;;;;;;5.78;4.63;;;21.30;99.90;;;;;;5173125;28;20042;-74
2022/08/05 04:39:20;;;;;;;5.40;4.32;;;21.50;99.90;;;;;;5181991;28;20037;-76
2022/08/05 04:41:51;;;;;;;5.93;4.95;;;21.60;99.90;;;;;;5181013;28;20031;-76
2022/08/05 04:44:22;;;;;;;5.35;4.85;;;21.80;99.90;;;;;;5165712;28;20073;-75
2022/08/05 04:46:52;;;;;;;6.25;5.28;;;21.90;99.90;;;;;;5164806;28;20026;-75
2022/08/05 04:49:23;;;;;;;6.25;5.13;;;22.00;99.90;;;;;;5180542;28;20093;-77
2022/08/05 04:51:54;;;;;;;5.75;4.57;;;22.10;99.90;;;;;;5179899;28;20034;-76
2022/08/05 04:54:27;;;;;;;6.68;4.90;;;22.20;99.90;;;;;;5185893;28;20026;-76
2022/08/05 04:56:58;;;;;;;6.35;4.57;;;22.40;99.90;;;;;;5186138;28;20037;-75
2022/08/05 04:59:29;;;;;;;6.43;4.93;;;22.60;99.90;;;;;;5169743;28;20382;-77
2022/08/05 05:01:59;;;;;;;4.50;3.75;;;22.60;99.90;;;;;;5180989;28;20029;-75
2022/08/05 05:04:30;;;;;;;4.55;3.75;;;23.00;99.90;;;;;;5175928;28;20069;-76
2022/08/05 05:07:01;;;;;;;4.57;3.60;;;23.30;99.90;;;;;;5184750;28;20724;-75
2022/08/05 05:09:32;;;;;;;4.13;3.15;;;23.50;99.90;;;;;;5165568;28;20479;-75
2022/08/05 05:12:03;;;;;;;4.05;2.80;;;23.60;99.90;;;;;;5172373;28;20022;-75
2022/08/05 05:14:33;;;;;;;3.25;2.92;;;23.80;99.90;;;;;;5174652;28;20379;-75
2022/08/05 05:17:04;;;;;;;3.15;2.72;;;24.00;99.90;;;;;;5179478;28;20033;-75
2022/08/05 05:19:35;;;;;;;3.28;2.38;;;24.20;99.90;;;;;;5166702;28;20426;-75
2022/08/05 05:22:06;;;;;;;2.78;2.35;;;24.30;99.90;;;;;;5172346;28;20080;-76
2022/08/05 05:24:37;;;;;;;2.85;2.03;;;24.10;99.90;;;;;;5172738;28;20038;-75
2022/08/05 05:27:08;;;;;;;2.40;2.20;;;24.40;99.90;;;;;;5182482;28;20583;-76
2022/08/05 05:29:38;;;;;;;2.83;2.40;;;24.50;99.90;;;;;;5171711;28;20445;-76
2022/08/05 05:32:09;;;;;;;2.75;2.42;;;24.60;99.90;;;;;;5170618;28;20471;-77
2022/08/05 05:34:40;;;;;;;3.85;2.75;;;24.60;99.90;;;;;;5180589;28;20088;-75
2022/08/05 05:37:14;;;;;;;10.63;3.00;;;24.80;99.90;;;;;;5171886;28;20038;-76
2022/08/05 05:39:45;;;;;;;5.30;2.53;;;25.00;99.90;;;;;;5172063;28;20369;-76
2022/08/05 05:42:16;;;;;;;3.28;2.72;;;25.00;99.90;;;;;;5181164;28;20018;-76
2022/08/05 05:44:46;;;;;;;2.85;2.38;;;25.00;99.90;;;;;;5172026;28;20033;-77
2022/08/05 05:47:17;;;;;;;3.63;2.50;;;25.00;99.90;;;;;;5171877;28;20041;-79
2022/08/05 05:49:48;;;;;;;3.58;2.28;;;24.70;99.90;;;;;;5171781;28;20351;-79
2022/08/05 05:52:19;;;;;;;3.20;2.40;;;24.70;99.90;;;;;;5168863;28;20026;-77
2022/08/05 05:54:49;;;;;;;4.03;2.60;;;25.10;99.90;;;;;;5168848;28;20042;-75
2022/08/05 05:57:20;;;;;;;2.55;2.35;;;25.40;99.90;;;;;;5184917;28;20113;-76
2022/08/05 05:59:51;;;;;;;2.72;2.10;;;25.60;99.90;;;;;;5166953;28;20038;-76
2022/08/05 06:02:22;;;;;;;2.80;2.22;;;25.60;99.90;;;;;;5168422;28;20474;-77
2022/08/05 06:04:53;;;;;;;3.28;2.38;;;25.70;99.90;;;;;;5182069;28;20101;-76
2022/08/05 06:07:23;;;;;;;3.28;2.67;;;25.30;99.90;;;;;;5171461;28;20081;-79
2022/08/05 06:09:54;;;;;;;2.80;2.50;;;25.30;99.90;;;;;;5188527;28;20092;-78
2022/08/05 06:12:25;;;;;;;3.13;2.22;;;25.40;99.90;;;;;;5178463;28;20490;-78
2022/08/05 06:14:56;;;;;;;2.67;2.28;;;25.30;99.90;;;;;;5166752;28;20038;-78
2022/08/05 06:17:27;;;;;;;3.03;2.10;;;25.30;99.90;;;;;;5180638;28;20023;-77
2022/08/05 06:19:58;;;;;;;2.60;2.22;;;25.30;99.90;;;;;;5182248;28;20077;-76
2022/08/05 06:22:31;;;;;;;3.60;2.42;;;25.50;99.90;;;;;;5166799;28;20026;-77
2022/08/05 06:25:03;;;;;;;2.72;2.30;;;25.30;99.90;;;;;;5166552;28;20042;-77
2022/08/05 06:27:35;;;;;;;4.82;2.58;;;25.30;99.90;;;;;;5174040;28;20030;-77
2022/08/05 06:30:07;;;;;;;3.17;2.30;;;25.40;99.90;;;;;;5169948;28;20410;-75
2022/08/05 06:32:38;;;;;;;4.28;2.60;;;25.50;99.90;;;;;;5167082;28;20084;-76
2022/08/05 06:35:09;;;;;;;2.55;2.20;;;25.30;99.90;;;;;;5167968;28;20043;-76
2022/08/05 06:37:40;;;;;;;2.38;2.10;;;25.50;99.90;;;;;;5169922;28;20018;-75
2022/08/05 06:40:11;;;;;;;4.45;2.60;;;25.40;99.90;;;;;;5179370;28;20113;-76
2022/08/05 06:42:43;;;;;;;2.78;1.77;;;25.60;99.90;;;;;;5168010;28;20025;-76
2022/08/05 06:45:16;;;;;;;2.08;1.80;;;25.50;99.90;;;;;;5167061;28;20033;-77
2022/08/05 06:47:47;;;;;;;2.38;1.80;;;25.40;99.90;;;;;;5180087;28;20109;-79
2022/08/05 06:50:18;;;;;;;2.40;1.98;;;25.30;99.90;;;;;;5188221;28;20037;-79
2022/08/05 06:52:49;;;;;;;2.28;2.00;;;25.50;99.90;;;;;;5174946;28;20398;-78
2022/08/05 06:55:20;;;;;;;2.47;1.83;;;25.50;99.90;;;;;;5167138;28;20046;-78
2022/08/05 06:57:51;;;;;;;3.30;2.33;;;25.40;99.90;;;;;;5174169;28;20026;-78
2022/08/05 07:00:21;;;;;;;4.60;2.30;;;25.40;99.90;;;;;;5166573;28;20049;-78
2022/08/05 07:02:52;;;;;;;3.63;2.30;;;25.60;99.90;;;;;;5174884;28;20494;-78
2022/08/05 07:05:23;;;;;;;3.40;2.60;;;25.40;99.90;;;;;;5179899;28;20031;-79
2022/08/05 07:07:54;;;;;;;2.58;1.92;;;25.40;99.90;;;;;;5179284;28;20031;-75
2022/08/05 07:10:25;;;;;;;2.58;2.20;;;25.50;99.90;;;;;;5167420;28;20479;-76
2022/08/05 07:18:35;;;;;;;2.97;2.40;;;26.00;99.90;;;;;;5173354;28;20026;-78
2022/08/05 07:21:06;;;;;;;3.78;1.80;;;25.90;99.90;;;;;;5172399;28;20031;-74
2022/08/05 07:23:37;;;;;;;2.38;2.03;;;25.90;99.90;;;;;;5185080;28;20125;-75
2022/08/05 07:26:13;;;;;;;2.15;1.95;;;26.00;99.90;;;;;;5179300;28;20457;-75
2022/08/05 07:28:44;;;;;;;3.65;2.30;;;26.00;99.90;;;;;;5186686;28;20026;-75
2022/08/05 07:31:15;;;;;;;3.08;2.35;;;25.90;99.90;;;;;;5178935;28;20450;-75
2022/08/05 07:33:46;;;;;;;1.98;1.73;;;26.00;99.90;;;;;;5173497;28;20030;-77
2022/08/05 07:36:17;;;;;;;2.00;1.80;;;26.00;99.90;;;;;;5179901;28;20138;-76
2022/08/05 07:38:48;;;;;;;2.83;2.00;;;26.00;99.90;;;;;;5173365;28;20597;-75
2022/08/05 07:41:21;;;;;;;2.85;2.10;;;25.70;99.90;;;;;;5182934;28;20021;-76
2022/08/05 07:43:53;;;;;;;3.15;2.30;;;25.80;99.90;;;;;;5172258;28;20030;-78
2022/08/05 07:46:27;;;;;;;4.57;2.38;;;26.10;99.90;;;;;;5177177;28;20486;-78
2022/08/05 07:48:59;;;;;;;2.50;2.13;;;26.40;99.90;;;;;;5174642;28;20093;-76
2022/08/05 07:51:35;;;;;;;2.17;1.90;;;26.70;99.90;;;;;;5182085;28;20072;-75
2022/08/05 07:54:07;;;;;;;2.42;2.15;;;26.70;99.90;;;;;;5165112;28;20030;-77
2022/08/05 07:56:38;;;;;;;3.63;2.13;;;26.60;99.90;;;;;;5171805;28;20148;-76
2022/08/05 07:59:08;;;;;;;2.53;1.80;;;27.20;99.90;;;;;;5181531;28;20117;-76
2022/08/05 08:01:39;;;;;;;2.65;2.03;;;26.50;99.90;;;;;;5176856;28;20558;-75
2022/08/05 08:04:10;;;;;;;2.63;1.60;;;26.50;99.90;;;;;;5198482;28;20018;-76
2022/08/05 08:06:41;;;;;;;2.22;1.88;;;26.40;99.90;;;;;;5179980;28;20034;-78
2022/08/05 08:09:12;;;;;;;2.38;2.00;;;26.90;99.90;;;;;;5182744;28;20014;-76
2022/08/05 08:11:43;;;;;;;3.22;2.05;;;26.80;99.90;;;;;;5182178;28;20504;-77
2022/08/05 08:14:13;;;;;;;2.38;1.80;;;26.40;99.90;;;;;;5176856;28;20520;-75
2022/08/05 08:16:44;;;;;;;4.45;2.05;;;26.30;99.90;;;;;;5178749;28;20068;-76
2022/08/05 08:19:15;;;;;;;2.47;1.90;;;26.30;99.90;;;;;;5170314;28;20026;-75
2022/08/05 08:21:46;;;;;;;2.35;1.80;;;26.40;99.90;;;;;;5181001;28;20034;-76
2022/08/05 08:24:16;;;;;;;2.78;2.47;;;26.30;99.90;;;;;;5166501;28;20488;-77
2022/08/05 08:26:49;;;;;;;1.48;1.38;;;26.20;99.90;;;;;;5176292;28;20057;-75
2022/08/05 08:29:20;;;;;;;2.72;1.90;;;27.00;99.90;;;;;;5186524;28;20036;-76
2022/08/05 08:31:53;;;;;;;2.22;1.80;;;26.90;99.90;;;;;;5182738;28;20034;-78
2022/08/05 08:34:25;;;;;;;2.10;1.90;;;26.90;99.90;;;;;;5176208;28;20381;-78
2022/08/05 08:36:56;;;;;;;3.42;2.45;;;26.50;99.90;;;;;;5166169;28;20533;-79
2022/08/05 08:39:27;;;;;;;2.85;2.05;;;26.70;99.90;;;;;;5167929;28;20018;-78
2022/08/05 08:42:01;;;;;;;2.40;1.80;;;27.50;99.90;;;;;;5180082;28;20098;-78
2022/08/05 08:44:33;;;;;;;2.42;1.98;;;28.30;99.90;;;;;;5176509;28;20496;-75
2022/08/05 08:47:05;;;;;;;3.58;1.90;;;27.50;99.90;;;;;;5186111;28;20026;-75
2022/08/05 08:49:38;;;;;;;3.65;1.70;;;28.20;99.90;;;;;;5183024;28;20425;-76
2022/08/05 08:52:18;;;;;;;3.97;2.20;;;27.70;99.90;;;;;;5167736;28;20026;-78
2022/08/05 08:54:51;;;;;;;2.03;1.70;;;28.00;99.90;;;;;;5178541;28;20060;-78
2022/08/05 08:57:23;;;;;;;2.75;2.10;;;27.70;99.90;;;;;;5168477;28;20061;-78
2022/08/05 08:59:57;;;;;;;1.85;1.70;;;28.30;99.90;;;;;;5169734;28;20037;-77
2022/08/05 09:02:28;;;;;;;2.65;1.92;;;28.10;99.90;;;;;;5185070;28;20026;-78
2022/08/05 09:04:59;;;;;;;3.03;1.63;;;28.00;99.90;;;;;;5171194;28;20073;-77
2022/08/05 09:07:30;;;;;;;2.20;1.95;;;28.30;99.90;;;;;;5181438;28;20037;-76
2022/08/05 09:10:00;;;;;;;2.80;1.65;;;28.30;99.90;;;;;;5171769;28;20022;-77
2022/08/05 09:12:32;;;;;;;2.42;1.80;;;28.20;99.90;;;;;;5175072;28;20498;-76
2022/08/05 09:15:04;;;;;;;1.95;1.73;;;28.10;99.90;;;;;;5180045;28;20033;-77
2022/08/05 09:17:35;;;;;;;2.38;1.48;;;28.10;99.90;;;;;;5169170;28;20029;-76
2022/08/05 09:20:07;;;;;;;2.45;2.25;;;28.60;99.90;;;;;;5185402;28;20030;-75
2022/08/05 09:23:19;;;;;;;2.05;1.83;;;28.80;99.90;;;;;;5184762;28;20034;-78
2022/08/05 09:25:53;;;;;;;1.80;1.65;;;28.70;99.90;;;;;;5168957;28;20054;-75
2022/08/05 09:28:26;;;;;;;1.83;1.70;;;28.80;99.90;;;;;;5175840;28;20023;-77
2022/08/05 09:31:03;;;;;;;1.70;1.60;;;28.30;99.90;;;;;;5175901;28;20030;-79
2022/08/05 09:33:54;;;;;;;4.38;2.00;;;28.50;99.90;;;;;;5185288;28;20018;-76
2022/08/05 09:36:48;;;;;;;1.98;1.50;;;28.60;99.90;;;;;;5183128;28;20038;-75
2022/08/05 09:39:19;;;;;;;2.20;1.52;;;29.10;99.90;;;;;;5184950;28;20037;-77
2022/08/05 09:42:02;;;;;;;2.80;2.00;;;28.30;99.90;;;;;;5185087;28;20022;-76
2022/08/05 09:44:37;;;;;;;3.63;2.10;;;28.70;99.90;;;;;;5185338;28;20485;-75
2022/08/05 09:47:08;;;;;;;2.00;1.80;;;29.20;99.90;;;;;;5185307;28;20104;-76
2022/08/05 09:49:41;;;;;;;2.42;1.98;;;29.20;99.90;;;;;;5184203;28;20022;-75
2022/08/05 09:52:25;;;;;;;2.03;1.50;;;28.80;99.90;;;;;;5185390;28;20042;-76
2022/08/05 09:55:06;;;;;;;2.35;2.13;;;29.10;99.90;;;;;;5185186;28;20088;-75
2022/08/05 09:57:44;;;;;;;2.00;1.80;;;28.80;99.90;;;;;;5185380;28;20081;-75
2022/08/05 10:00:17;;;;;;;2.30;1.80;;;28.50;99.90;;;;;;5184183;28;20018;-76
2022/08/05 10:02:52;;;;;;;2.53;1.73;;;28.30;99.90;;;;;;5185370;28;20108;-76
2022/08/05 10:05:28;;;;;;;2.08;1.67;;;28.50;99.90;;;;;;5185351;28;20022;-77
2022/08/05 10:08:05;;;;;;;1.77;1.60;;;28.80;99.90;;;;;;5185448;28;20121;-76
2022/08/05 10:10:50;;;;;;;2.15;1.80;;;29.20;99.90;;;;;;5185310;28;20014;-75
2022/08/05 10:13:37;;;;;;;2.28;1.90;;;29.40;99.90;;;;;;5185688;28;20025;-75
2022/08/05 10:16:35;;;;;;;3.30;1.90;;;29.40;99.90;;;;;;5188820;28;20095;-76
2022/08/05 10:19:06;;;;;;;2.65;1.83;;;28.70;99.90;;;;;;5188992;28;20057;-75
2022/08/05 10:21:37;;;;;;;2.63;1.92;;;28.00;99.90;;;;;;5187508;28;20101;-76
2022/08/05 10:24:11;;;;;;;3.90;1.92;;;28.60;99.90;;;;;;5186278;28;20052;-75
2022/08/05 10:26:44;;;;;;;2.72;1.92;;;29.30;99.90;;;;;;5183258;28;20041;-77
2022/08/05 10:29:15;;;;;;;2.10;1.90;;;29.10;99.90;;;;;;5179968;28;20525;-77
2022/08/05 10:31:46;;;;;;;2.00;1.80;;;29.80;99.90;;;;;;5178363;28;20120;-76
2022/08/05 10:34:17;;;;;;;1.70;1.60;;;29.10;99.90;;;;;;5174105;28;20033;-75
2022/08/05 10:36:49;;;;;;;1.50;1.40;;;29.60;99.90;;;;;;5184572;28;20033;-75
2022/08/05 10:39:30;;;;;;;2.20;1.85;;;29.90;99.90;;;;;;5175925;28;20041;-76
2022/08/05 10:42:15;;;;;;;2.30;1.70;;;29.40;99.90;;;;;;5172991;28;20023;-75
2022/08/05 10:44:46;;;;;;;2.20;1.67;;;29.50;99.90;;;;;;5182538;28;20133;-75
2022/08/05 10:47:17;;;;;;;2.58;1.55;;;29.70;99.90;;;;;;5177439;28;20025;-74
2022/08/05 10:50:08;;;;;;;2.42;1.60;;;30.10;99.90;;;;;;5187684;28;20030;-74
2022/08/05 10:52:44;;;;;;;2.60;1.60;;;29.50;99.90;;;;;;5170084;28;20034;-74
2022/08/05 10:55:16;;;;;;;2.30;1.80;;;28.80;99.90;;;;;;5180341;28;20080;-75
2022/08/05 10:57:47;;;;;;;1.90;1.65;;;29.70;99.90;;;;;;5178426;28;20045;-74
2022/08/05 11:00:22;;;;;;;2.85;2.22;;;29.30;99.90;;;;;;5171668;28;20026;-74
2022/08/05 11:03:05;;;;;;;3.50;2.20;;;29.30;99.90;;;;;;5171646;28;20478;-76
2022/08/05 11:05:37;;;;;;;2.90;2.10;;;28.80;99.90;;;;;;5183926;28;20386;-77
2022/08/05 11:08:09;;;;;;;1.98;1.73;;;28.70;99.90;;;;;;5187458;28;20021;-77
2022/08/05 11:10:42;;;;;;;1.98;1.70;;;28.80;99.90;;;;;;5171430;28;20615;-75
2022/08/05 11:13:39;;;;;;;3.58;1.88;;;28.60;99.90;;;;;;5187976;28;20040;-77
2022/08/05 11:16:23;;;;;;;2.47;2.03;;;29.30;99.90;;;;;;5172591;28;20058;-75
2022/08/05 11:19:29;;;;;;;3.28;1.65;;;29.30;99.90;;;;;;5170482;28;20449;-75
2022/08/05 11:22:38;;;;;;;2.45;1.73;;;29.60;99.90;;;;;;5185978;28;20075;-78
2022/08/05 11:25:30;;;;;;;;;;;29.80;99.90;;;;;;5172396;28;20018;-77
2022/08/05 11:28:10;;;;;;;2.83;1.77;;;29.60;99.90;;;;;;5180704;28;20385;-73
2022/08/05 11:33:35;;;;;;;1.83;1.65;;;29.20;99.90;;;;;;5187387;28;20041;-74
2022/08/05 11:36:08;;;;;;;3.13;1.90;;;29.00;99.90;;;;;;5172537;28;20038;-73
2022/08/05 11:38:41;;;;;;;2.00;1.80;;;28.80;99.90;;;;;;5182866;28;20026;-75
2022/08/05 11:41:16;;;;;;;2.53;1.85;;;28.50;99.90;;;;;;5173748;28;20022;-74
2022/08/05 11:43:59;;;;;;;2.42;1.70;;;29.40;99.90;;;;;;5180965;28;20061;-77
2022/08/05 11:46:40;;;;;;;1.92;1.60;;;29.30;99.90;;;;;;5184795;28;20022;-73
2022/08/05 11:49:15;;;;;;;1.85;1.63;;;29.40;99.90;;;;;;5179842;28;20034;-76
2022/08/05 11:51:48;;;;;;;2.17;1.77;;;28.80;99.90;;;;;;5166285;28;20528;-75
2022/08/05 11:54:32;;;;;;;2.08;1.60;;;28.50;99.90;;;;;;5181788;28;20034;-78
2022/08/05 11:57:04;;;;;;;2.58;1.90;;;29.60;99.90;;;;;;5180679;28;20033;-77
2022/08/05 11:59:35;;;;;;;3.47;1.70;;;29.00;99.90;;;;;;5175255;28;20026;-74
2022/08/05 12:02:07;;;;;;;2.47;1.67;;;29.20;99.90;;;;;;5178982;28;20718;-74
2022/08/05 12:04:43;;;;;;;3.22;2.00;;;28.80;99.90;;;;;;5169109;28;20394;-74
2022/08/05 12:07:16;;;;;;;3.10;1.80;;;28.70;99.90;;;;;;5179111;28;20022;-74
2022/08/05 12:09:52;;;;;;;2.15;1.65;;;29.30;99.90;;;;;;5177765;28;20041;-74
2022/08/05 12:12:24;;;;;;;2.50;1.70;;;29.30;99.90;;;;;;5170078;28;20014;-75
2022/08/05 12:14:56;;;;;;;2.67;1.83;;;29.30;99.90;;;;;;5180254;28;20038;-76
2022/08/05 12:17:28;;;;;;;2.25;1.70;;;29.50;99.90;;;;;;5174822;28;20014;-74
2022/08/05 12:19:59;;;;;;;2.33;1.73;;;29.20;99.90;;;;;;5181433;28;20022;-75
2022/08/05 12:22:29;;;;;;;1.98;1.65;;;29.30;99.90;;;;;;5168704;28;20022;-74
2022/08/05 12:25:00;;;;;;;1.88;1.63;;;29.00;99.90;;;;;;5182471;28;20116;-76
2022/08/05 12:27:31;;;;;;;2.85;1.73;;;29.20;99.90;;;;;;5176318;28;20042;-76
2022/08/05 12:30:09;;;;;;;2.20;1.88;;;29.10;99.90;;;;;;5172452;28;20105;-75
2022/08/05 12:32:47;;;;;;;3.55;1.58;;;28.80;99.90;;;;;;5185269;28;20645;-75
2022/08/05 12:35:18;;;;;;;2.80;1.98;;;29.30;99.90;;;;;;5177277;28;20026;-77
2022/08/05 12:37:49;;;;;;;2.92;2.00;;;29.00;99.90;;;;;;5165459;28;20498;-75
2022/08/05 12:40:24;;;;;;;1.80;1.63;;;29.40;99.90;;;;;;5180760;28;20091;-77
2022/08/05 12:42:54;;;;;;;2.47;1.70;;;29.00;99.90;;;;;;5180140;28;20038;-76
2022/08/05 12:45:25;;;;;;;1.52;1.42;;;28.90;99.90;;;;;;5173237;28;20018;-75
2022/08/05 12:47:56;;;;;;;2.95;1.80;;;29.70;99.90;;;;;;5185837;28;20077;-76
2022/08/05 12:50:27;;;;;;;1.63;1.50;;;29.20;99.90;;;;;;5185135;28;20568;-75
2022/08/05 12:53:00;;;;;;;2.00;1.42;;;29.10;99.90;;;;;;5170488;28;20041;-76
2022/08/05 12:55:31;;;;;;;3.08;1.88;;;29.40;99.90;;;;;;5183020;28;20080;-75
2022/08/05 12:58:02;;;;;;;2.75;1.85;;;28.90;99.90;;;;;;5172174;28;20352;-75
2022/08/05 13:00:42;;;;;;;2.17;1.42;;;28.60;99.90;;;;;;5165468;28;20394;-75
2022/08/05 13:03:13;;;;;;;1.90;1.52;;;29.40;99.90;;;;;;5165578;28;20030;-75
2022/08/05 13:05:47;;;;;;;2.22;1.70;;;29.20;99.90;;;;;;5175516;28;20034;-76
2022/08/05 13:08:20;;;;;;;2.78;1.83;;;28.80;99.90;;;;;;5168287;28;20061;-75
2022/08/05 13:10:57;;;;;;;2.22;1.75;;;29.10;99.90;;;;;;5180405;28;20031;-75
2022/08/05 13:13:29;;;;;;;1.70;1.60;;;28.30;99.90;;;;;;5165072;28;20052;-77
2022/08/05 13:16:00;;;;;;;2.50;1.85;;;28.60;99.90;;;;;;5180945;28;20501;-76
2022/08/05 13:18:53;;;;;;;2.35;1.60;;;28.90;99.90;;;;;;5172801;28;20022;-76
2022/08/05 13:21:25;;;;;;;1.83;1.52;;;28.80;99.90;;;;;;5185555;28;20025;-77
2022/08/05 13:24:00;;;;;;;1.42;1.33;;;28.60;99.90;;;;;;5171223;28;20018;-74
2022/08/05 13:26:32;;;;;;;2.45;1.77;;;29.00;99.90;;;;;;5181673;28;20077;-75
2022/08/05 13:29:03;;;;;;;2.72;1.80;;;28.90;99.90;;;;;;5171439;28;20034;-75
2022/08/05 13:31:34;;;;;;;3.05;1.60;;;29.00;99.90;;;;;;5184415;28;20386;-77